Time;durP1;ratioP1;P1;durP2;ratioP2;P2;SDS_P1;SDS_P2;PMS_P1;PMS_P2;Temp;Humidity;BMP_temperature;BMP_pressure;BME280_temperature;BME280_humidity;BME280_pressure;Samples;Min_cycle;Max_cycle;Signal;HPM_P1;HPM_P2
2021/04/13 00:01:10;;;;;;;0.70;0.40;;;5.10;99.90;;;;;;4995999;28;20470;-75
2021/04/13 00:03:47;;;;;;;0.40;0.20;;;5.20;99.90;;;;;;4978514;28;20065;-75
2021/04/13 00:06:18;;;;;;;0.40;0.20;;;5.20;99.90;;;;;;4990462;28;20033;-76
2021/04/13 00:08:47;;;;;;;2.75;0.68;;;5.10;99.90;;;;;;4995590;28;20076;-75
2021/04/13 00:11:15;;;;;;;1.05;0.28;;;5.10;99.90;;;;;;4995635;28;20113;-76
2021/04/13 00:13:41;;;;;;;0.80;0.30;;;5.10;99.90;;;;;;4995808;28;20022;-76
2021/04/13 00:16:14;;;;;;;0.30;0.10;;;5.10;99.90;;;;;;4978412;28;20437;-77
2021/04/13 00:18:42;;;;;;;0.90;0.20;;;5.10;99.90;;;;;;4978071;28;20022;-76
2021/04/13 00:21:16;;;;;;;0.93;0.50;;;5.10;99.90;;;;;;4995509;28;20068;-75
2021/04/13 00:23:43;;;;;;;0.30;0.20;;;5.10;99.90;;;;;;4995514;28;20030;-75
2021/04/13 00:26:11;;;;;;;0.50;0.45;;;5.10;99.90;;;;;;4995370;28;20014;-75
2021/04/13 00:28:48;;;;;;;0.68;0.30;;;5.00;99.90;;;;;;4995115;28;20037;-78
2021/04/13 00:31:38;;;;;;;0.35;0.22;;;5.10;99.90;;;;;;4977946;28;20113;-75
2021/04/13 00:34:08;;;;;;;0.52;0.30;;;5.10;99.90;;;;;;4995402;28;20023;-76
2021/04/13 00:36:34;;;;;;;0.50;0.30;;;5.10;99.90;;;;;;4977702;28;20482;-77
2021/04/13 00:39:22;;;;;;;1.58;0.40;;;5.00;99.90;;;;;;4977626;28;20033;-76
2021/04/13 00:41:59;;;;;;;0.95;0.20;;;5.00;99.90;;;;;;4994987;28;20045;-75
2021/04/13 00:44:25;;;;;;;0.70;0.40;;;5.10;99.90;;;;;;4995160;28;20076;-76
2021/04/13 00:46:58;;;;;;;1.75;0.30;;;5.10;99.90;;;;;;4992464;28;20057;-75
2021/04/13 00:49:28;;;;;;;1.10;0.30;;;5.20;99.90;;;;;;4993767;28;20532;-75
2021/04/13 00:52:17;;;;;;;0.70;0.30;;;5.20;99.90;;;;;;4995120;28;20124;-76
2021/04/13 00:54:52;;;;;;;1.25;0.40;;;5.20;99.90;;;;;;4994910;28;20030;-76
2021/04/13 00:57:26;;;;;;;0.28;0.17;;;5.20;99.90;;;;;;4995301;28;20026;-75
2021/04/13 00:59:55;;;;;;;0.55;0.30;;;5.10;99.90;;;;;;4993487;28;20034;-75
2021/04/13 01:02:32;;;;;;;2.78;0.28;;;5.10;99.90;;;;;;4994748;28;20038;-76
2021/04/13 01:05:21;;;;;;;1.80;0.30;;;5.10;99.90;;;;;;4993565;28;20030;-75
2021/04/13 01:07:49;;;;;;;1.02;0.28;;;5.10;99.90;;;;;;4994542;28;20022;-75
2021/04/13 01:10:36;;;;;;;1.05;0.30;;;5.00;99.90;;;;;;4994538;28;20044;-76
2021/04/13 01:13:11;;;;;;;2.05;0.30;;;5.00;99.90;;;;;;4994858;28;20027;-75
2021/04/13 01:15:39;;;;;;;0.98;0.32;;;4.90;99.90;;;;;;4993383;28;20050;-75
2021/04/13 01:18:07;;;;;;;1.58;0.40;;;4.90;99.90;;;;;;4993484;28;20493;-75
2021/04/13 01:20:43;;;;;;;1.42;0.40;;;4.90;99.90;;;;;;4994613;28;20561;-77
2021/04/13 01:23:13;;;;;;;;;;;4.80;99.90;;;;;;4993674;28;20042;-76
2021/04/13 01:25:44;;;;;;;0.70;0.40;;;4.80;99.90;;;;;;4994295;28;19905;-76
2021/04/13 01:28:18;;;;;;;1.08;0.50;;;4.80;99.90;;;;;;4993039;28;20022;-75
2021/04/13 01:31:11;;;;;;;1.00;0.50;;;4.90;99.90;;;;;;4993274;28;20036;-75
2021/04/13 01:33:41;;;;;;;0.70;0.38;;;4.90;99.90;;;;;;4994132;28;20018;-75
2021/04/13 01:36:19;;;;;;;3.42;0.60;;;4.80;99.90;;;;;;4994161;28;20031;-75
2021/04/13 01:39:00;;;;;;;1.83;0.82;;;4.90;99.90;;;;;;4992950;28;20026;-76
2021/04/13 01:41:57;;;;;;;0.75;0.57;;;4.80;99.90;;;;;;4992727;28;20031;-77
2021/04/13 01:44:37;;;;;;;0.65;0.50;;;4.80;99.90;;;;;;4993978;28;20082;-75
2021/04/13 01:47:06;;;;;;;1.02;0.45;;;4.90;99.90;;;;;;4992948;28;20486;-79
2021/04/13 01:49:42;;;;;;;0.60;0.47;;;4.90;99.90;;;;;;4994036;28;20026;-77
2021/04/13 01:52:09;;;;;;;;;;;4.80;99.90;;;;;;4977306;28;20231;-75
2021/04/13 01:54:36;;;;;;;0.98;0.60;;;4.80;99.90;;;;;;4991872;28;19988;-77
2021/04/13 01:57:36;;;;;;;1.83;0.70;;;4.90;99.90;;;;;;4993286;28;20034;-75
2021/04/13 02:00:13;;;;;;;0.90;0.60;;;4.70;99.90;;;;;;4990494;28;20455;-76
2021/04/13 02:02:53;;;;;;;1.02;0.60;;;4.70;99.90;;;;;;4993146;28;20045;-76
2021/04/13 02:05:26;;;;;;;0.90;0.70;;;4.80;99.90;;;;;;4991305;28;20109;-79
2021/04/13 02:08:03;;;;;;;2.88;0.90;;;4.80;99.90;;;;;;4992194;28;20038;-76
2021/04/13 02:10:38;;;;;;;2.03;0.68;;;4.80;99.90;;;;;;4993643;28;20106;-77
2021/04/13 02:13:11;;;;;;;1.85;0.50;;;4.80;99.90;;;;;;5008660;28;20081;-76
2021/04/13 02:15:37;;;;;;;0.55;0.45;;;4.70;99.90;;;;;;4992327;28;20041;-75
2021/04/13 02:18:14;;;;;;;1.30;0.82;;;4.70;99.90;;;;;;4993547;28;20035;-75
2021/04/13 02:20:44;;;;;;;1.33;0.80;;;4.60;99.10;;;;;;5008507;28;20053;-76
2021/04/13 02:23:12;;;;;;;1.00;0.90;;;4.60;99.90;;;;;;4992011;28;20397;-77
2021/04/13 02:25:40;;;;;;;1.23;0.50;;;4.60;99.90;;;;;;4992187;28;20062;-79
2021/04/13 02:28:06;;;;;;;1.23;0.70;;;4.60;99.60;;;;;;4993461;28;20030;-75
2021/04/13 02:30:35;;;;;;;0.63;0.52;;;4.60;99.90;;;;;;4993149;28;20073;-75
2021/04/13 02:33:10;;;;;;;0.88;0.57;;;4.60;99.90;;;;;;4992033;28;20027;-76
2021/04/13 02:35:38;;;;;;;1.67;0.75;;;4.60;99.70;;;;;;4992126;28;20018;-75
2021/04/13 02:38:07;;;;;;;0.65;0.47;;;4.70;99.10;;;;;;4992064;28;21111;-75
2021/04/13 02:41:01;;;;;;;0.75;0.60;;;4.70;99.30;;;;;;4993239;28;20073;-76
2021/04/13 02:43:42;;;;;;;0.90;0.70;;;4.60;99.90;;;;;;4991919;28;20030;-75
2021/04/13 02:46:28;;;;;;;0.73;0.57;;;4.50;98.30;;;;;;4993089;28;20054;-78
2021/04/13 02:49:03;;;;;;;1.67;0.73;;;4.50;99.50;;;;;;4975747;28;20030;-75
2021/04/13 02:51:32;;;;;;;1.25;0.82;;;4.50;99.10;;;;;;4993459;28;20031;-76
2021/04/13 02:53:59;;;;;;;0.65;0.60;;;4.40;98.80;;;;;;4976108;28;20110;-78
2021/04/13 02:56:31;;;;;;;1.58;0.80;;;4.40;99.90;;;;;;4993525;28;20030;-76
2021/04/13 02:59:12;;;;;;;1.77;0.50;;;4.40;99.90;;;;;;4975673;28;20462;-77
2021/04/13 03:01:53;;;;;;;0.95;0.77;;;4.40;99.00;;;;;;4975863;28;20489;-75
2021/04/13 03:04:20;;;;;;;2.28;0.70;;;4.30;99.90;;;;;;4977635;28;20069;-79
2021/04/13 03:06:52;;;;;;;1.35;0.73;;;4.40;99.90;;;;;;4976854;28;20378;-79
2021/04/13 03:09:22;;;;;;;1.67;1.58;;;4.30;99.90;;;;;;4994993;28;20462;-79
2021/04/13 03:11:58;;;;;;;1.50;1.00;;;4.40;99.90;;;;;;4976060;28;20030;-79
2021/04/13 03:14:24;;;;;;;1.67;0.88;;;4.40;99.90;;;;;;4976613;28;20069;-79
2021/04/13 03:16:54;;;;;;;2.00;0.70;;;4.30;99.90;;;;;;4976524;28;20565;-79
2021/04/13 03:19:22;;;;;;;1.90;1.80;;;4.30;99.90;;;;;;4993820;28;20088;-79
2021/04/13 03:21:52;;;;;;;1.60;1.50;;;4.30;99.90;;;;;;4992851;28;20042;-79
2021/04/13 03:24:23;;;;;;;1.73;1.10;;;4.40;99.90;;;;;;4976644;28;20034;-80
2021/04/13 03:27:00;;;;;;;1.15;1.00;;;4.30;99.90;;;;;;4976729;28;20481;-79
2021/04/13 03:30:01;;;;;;;1.42;0.98;;;4.40;99.90;;;;;;4994161;28;20034;-78
2021/04/13 03:32:32;;;;;;;1.42;1.13;;;4.40;99.90;;;;;;4993641;28;20019;-78
2021/04/13 03:34:59;;;;;;;0.80;0.50;;;4.40;99.90;;;;;;4976325;28;20065;-78
2021/04/13 03:37:26;;;;;;;0.43;0.40;;;4.40;98.50;;;;;;4993343;28;20032;-79
2021/04/13 03:39:53;;;;;;;1.23;0.73;;;4.40;98.70;;;;;;4992811;28;20494;-79
2021/04/13 03:42:27;;;;;;;0.93;0.60;;;4.30;98.80;;;;;;4977659;28;20070;-80
2021/04/13 03:44:55;;;;;;;0.75;0.52;;;4.40;98.50;;;;;;4979065;28;20084;-79
2021/04/13 03:47:25;;;;;;;0.93;0.70;;;4.40;98.10;;;;;;4979723;28;20481;-79
2021/04/13 03:49:52;;;;;;;0.75;0.70;;;4.40;98.90;;;;;;4979172;28;20060;-82
2021/04/13 03:52:25;;;;;;;1.58;0.75;;;4.30;99.10;;;;;;4996702;28;20042;-80
2021/04/13 03:54:51;;;;;;;4.65;1.30;;;4.40;98.20;;;;;;4996784;28;20026;-78
2021/04/13 03:57:28;;;;;;;3.08;0.95;;;4.40;95.80;;;;;;4979420;28;20038;-76
2021/04/13 03:59:55;;;;;;;1.63;0.60;;;4.20;97.00;;;;;;4996354;28;20450;-77
2021/04/13 04:02:21;;;;;;;2.05;0.90;;;4.20;96.50;;;;;;4978792;28;20042;-78
2021/04/13 04:04:47;;;;;;;2.55;1.40;;;4.20;95.70;;;;;;4979072;28;20180;-79
2021/04/13 04:07:28;;;;;;;5.20;2.50;;;4.20;96.40;;;;;;4996312;28;20030;-77
2021/04/13 04:09:54;;;;;;;3.95;2.20;;;4.20;96.80;;;;;;4978610;28;20120;-79
2021/04/13 04:12:28;;;;;;;4.47;2.72;;;4.20;96.60;;;;;;4996120;28;20474;-79
2021/04/13 04:15:24;;;;;;;2.25;1.35;;;4.10;96.50;;;;;;4978669;28;20042;-76
2021/04/13 04:17:50;;;;;;;1.75;0.63;;;4.10;95.80;;;;;;4995488;28;20019;-75
2021/04/13 04:20:16;;;;;;;2.33;0.57;;;4.10;94.80;;;;;;4978687;28;20033;-75
2021/04/13 04:22:53;;;;;;;1.73;0.70;;;4.00;95.00;;;;;;4995718;28;20470;-75
2021/04/13 04:25:45;;;;;;;1.00;0.68;;;4.10;96.10;;;;;;4995967;28;20109;-75
2021/04/13 04:28:20;;;;;;;1.30;0.70;;;4.10;95.30;;;;;;4995724;28;20377;-75
2021/04/13 04:30:46;;;;;;;2.45;1.00;;;4.00;96.30;;;;;;4977801;28;20023;-77
2021/04/13 04:33:33;;;;;;;1.20;0.65;;;4.00;95.10;;;;;;4979408;28;20030;-75
2021/04/13 04:35:59;;;;;;;1.38;0.85;;;4.00;95.30;;;;;;4978750;28;20099;-82
2021/04/13 04:38:31;;;;;;;2.63;1.45;;;4.60;97.30;;;;;;4995143;28;20026;-75
2021/04/13 04:41:03;;;;;;;1.20;0.82;;;4.30;93.90;;;;;;4979212;28;20117;-77
2021/04/13 04:43:57;;;;;;;1.00;0.80;;;4.10;95.40;;;;;;4978335;28;20030;-77
2021/04/13 04:46:49;;;;;;;2.40;1.00;;;4.00;95.60;;;;;;4997916;28;20073;-77
2021/04/13 04:49:18;;;;;;;2.58;1.60;;;3.90;95.70;;;;;;4975435;28;20043;-80
2021/04/13 04:51:50;;;;;;;14.95;7.90;;;4.00;95.50;;;;;;4978545;28;20014;-80
2021/04/13 04:54:16;;;;;;;4.82;3.15;;;3.90;95.10;;;;;;4978758;28;20109;-79
2021/04/13 04:56:41;;;;;;;1.58;1.00;;;3.90;95.90;;;;;;4996499;28;20121;-76
2021/04/13 04:59:07;;;;;;;2.97;1.10;;;4.00;94.90;;;;;;4978009;28;20030;-76
2021/04/13 05:01:34;;;;;;;3.25;0.90;;;3.90;93.80;;;;;;4996232;28;20026;-79
2021/04/13 05:04:00;;;;;;;7.05;1.10;;;3.90;93.90;;;;;;4995789;28;20026;-78
2021/04/13 05:06:26;;;;;;;3.72;0.90;;;3.90;94.50;;;;;;4978143;28;20022;-76
2021/04/13 05:08:54;;;;;;;2.45;0.88;;;3.90;93.40;;;;;;4978049;28;20037;-76
2021/04/13 05:11:20;;;;;;;4.80;1.70;;;3.90;93.30;;;;;;4996027;28;20022;-77
2021/04/13 05:13:45;;;;;;;7.15;5.00;;;4.00;92.80;;;;;;4995475;28;20037;-76
2021/04/13 05:16:12;;;;;;;13.93;10.27;;;4.00;92.60;;;;;;4995789;28;20386;-78
2021/04/13 05:18:37;;;;;;;5.00;2.30;;;4.00;91.90;;;;;;4977599;28;20031;-76
2021/04/13 05:21:03;;;;;;;2.35;1.50;;;4.10;92.40;;;;;;4978036;28;20031;-77
2021/04/13 05:23:29;;;;;;;3.45;1.95;;;4.10;92.60;;;;;;4995512;28;20041;-76
2021/04/13 05:25:55;;;;;;;2.92;1.60;;;4.20;93.50;;;;;;4994826;28;20031;-75
2021/04/13 05:28:21;;;;;;;5.57;2.17;;;4.20;91.60;;;;;;4994502;28;20018;-76
2021/04/13 05:30:49;;;;;;;2.05;1.25;;;4.10;91.80;;;;;;4995427;28;20028;-78
2021/04/13 05:33:16;;;;;;;3.03;1.88;;;4.20;91.60;;;;;;4994781;28;20030;-75
2021/04/13 05:35:42;;;;;;;4.20;1.00;;;4.30;92.20;;;;;;4993995;28;20030;-75
2021/04/13 05:38:14;;;;;;;2.05;1.08;;;4.20;92.10;;;;;;4994816;28;20478;-78
2021/04/13 05:40:41;;;;;;;1.75;0.85;;;4.20;92.50;;;;;;4994787;28;20018;-78
2021/04/13 05:43:09;;;;;;;1.50;0.95;;;4.20;92.20;;;;;;4994613;28;20049;-80
2021/04/13 05:45:37;;;;;;;8.35;1.08;;;4.30;92.00;;;;;;4994205;28;20046;-81
2021/04/13 05:48:03;;;;;;;1.65;0.80;;;4.20;92.70;;;;;;4977068;28;20037;-78
2021/04/13 05:50:32;;;;;;;1.75;0.70;;;4.30;92.30;;;;;;4994256;28;20477;-81
2021/04/13 05:52:57;;;;;;;1.27;0.75;;;4.30;92.20;;;;;;4993378;28;20117;-78
2021/04/13 05:55:23;;;;;;;2.00;0.98;;;4.40;92.10;;;;;;4976662;28;20140;-78
2021/04/13 05:57:53;;;;;;;4.10;1.15;;;4.40;94.40;;;;;;4993152;28;20030;-76
2021/04/13 06:00:21;;;;;;;7.25;4.43;;;4.50;94.20;;;;;;4991943;28;20030;-77
2021/04/13 06:02:47;;;;;;;3.17;1.67;;;4.50;93.50;;;;;;4993662;28;20037;-76
2021/04/13 06:05:14;;;;;;;2.42;1.10;;;4.50;90.90;;;;;;4975806;28;20030;-77
2021/04/13 06:07:40;;;;;;;3.22;1.30;;;4.50;90.80;;;;;;4993127;28;20073;-75
2021/04/13 06:10:07;;;;;;;1.50;0.80;;;4.50;91.90;;;;;;4975826;28;20030;-75
2021/04/13 06:12:34;;;;;;;2.05;1.85;;;4.50;91.80;;;;;;4975749;28;20027;-75
2021/04/13 06:14:59;;;;;;;2.92;1.27;;;4.60;91.90;;;;;;4975465;28;20377;-78
2021/04/13 06:17:25;;;;;;;3.40;1.10;;;4.60;91.40;;;;;;4992488;28;20030;-75
2021/04/13 06:19:50;;;;;;;2.30;1.10;;;4.80;92.60;;;;;;4993737;28;20022;-76
2021/04/13 06:22:17;;;;;;;1.77;1.00;;;4.80;88.60;;;;;;4993035;28;20054;-75
2021/04/13 06:24:42;;;;;;;6.30;1.05;;;4.80;92.50;;;;;;4976226;28;20037;-77
2021/04/13 06:27:09;;;;;;;1.92;1.05;;;4.80;90.70;;;;;;4993401;28;20014;-76
2021/04/13 06:29:38;;;;;;;2.00;0.90;;;4.80;91.00;;;;;;4993429;28;20030;-76
2021/04/13 06:32:08;;;;;;;1.52;1.00;;;4.80;90.70;;;;;;4975751;28;20038;-76
2021/04/13 06:34:34;;;;;;;2.00;1.02;;;4.80;90.70;;;;;;4993335;28;20458;-78
2021/04/13 06:37:03;;;;;;;2.88;1.35;;;4.80;91.50;;;;;;4992997;28;20085;-77
2021/04/13 06:39:29;;;;;;;9.80;3.83;;;4.80;92.70;;;;;;4993557;28;20018;-75
2021/04/13 06:42:12;;;;;;;22.38;10.13;;;4.70;94.00;;;;;;4993327;28;20065;-76
2021/04/13 06:44:45;;;;;;;4.72;2.03;;;4.70;94.70;;;;;;4976049;28;20381;-80
2021/04/13 06:47:35;;;;;;;9.40;5.50;;;4.80;93.70;;;;;;4993026;28;20023;-77
2021/04/13 06:50:26;;;;;;;2.92;1.83;;;4.60;95.20;;;;;;4968571;28;20038;-79
2021/04/13 06:53:04;;;;;;;2.38;1.40;;;4.60;95.20;;;;;;4975869;28;20386;-75
2021/04/13 06:56:01;;;;;;;4.95;1.52;;;4.60;95.30;;;;;;4976157;28;20027;-77
2021/04/13 06:58:38;;;;;;;13.77;12.32;;;4.60;96.70;;;;;;4965995;28;20117;-77
2021/04/13 07:01:24;;;;;;;31.08;25.33;;;4.50;95.50;;;;;;4993467;28;20029;-75
2021/04/13 07:04:06;;;;;;;26.30;22.00;;;4.40;95.80;;;;;;4992945;28;20030;-74
2021/04/13 07:06:41;;;;;;;9.18;5.15;;;4.30;96.40;;;;;;4975785;28;20023;-77
2021/04/13 07:09:33;;;;;;;9.80;4.28;;;4.30;97.10;;;;;;4993031;28;20344;-79
2021/04/13 07:12:21;;;;;;;4.15;1.88;;;4.30;97.90;;;;;;4975824;28;20069;-78
2021/04/13 07:14:58;;;;;;;10.55;9.50;;;4.30;98.60;;;;;;4975767;28;20077;-76
2021/04/13 07:17:40;;;;;;;1.35;0.88;;;4.20;98.50;;;;;;4993751;28;20030;-79
2021/04/13 07:20:11;;;;;;;5.80;5.20;;;4.10;97.80;;;;;;4997003;28;20105;-76
2021/04/13 07:22:43;;;;;;;2.85;2.10;;;4.00;98.70;;;;;;4996685;28;20042;-78
2021/04/13 07:25:21;;;;;;;1.88;1.30;;;4.10;99.70;;;;;;4978812;28;20054;-77
2021/04/13 07:27:54;;;;;;;5.47;3.05;;;4.10;99.30;;;;;;4978112;28;20066;-78
2021/04/13 07:30:43;;;;;;;18.05;13.18;;;4.00;99.90;;;;;;4979233;28;20026;-75
2021/04/13 07:33:13;;;;;;;11.60;8.20;;;4.00;99.90;;;;;;4978932;28;20030;-76
2021/04/13 07:35:39;;;;;;;3.83;1.73;;;4.10;99.50;;;;;;4996427;28;20509;-76
2021/04/13 07:38:12;;;;;;;4.00;3.60;;;4.00;99.90;;;;;;4978920;28;20358;-85
2021/04/13 07:40:43;;;;;;;12.88;10.80;;;4.00;99.90;;;;;;4982673;28;20029;-84
2021/04/13 07:43:36;;;;;;;7.07;5.80;;;3.90;99.90;;;;;;4982787;28;20037;-86
2021/04/13 07:46:31;;;;;;;3.17;2.67;;;3.90;99.90;;;;;;4971560;28;20637;-84
2021/04/13 07:49:26;;;;;;;7.00;4.80;;;3.90;99.90;;;;;;4962161;28;20027;-85
2021/04/13 07:52:04;;;;;;;3.92;3.08;;;3.80;99.90;;;;;;4959146;28;20031;-85
2021/04/13 07:54:46;;;;;;;9.98;7.78;;;4.20;99.90;;;;;;4962272;28;20070;-82
2021/04/13 07:57:45;;;;;;;8.10;6.47;;;3.80;99.90;;;;;;4962458;28;20027;-84
2021/04/13 08:00:29;;;;;;;9.40;8.45;;;3.80;99.90;;;;;;4962648;28;20057;-85
2021/04/13 08:03:19;;;;;;;9.90;8.52;;;3.70;99.90;;;;;;4962578;28;20102;-85
2021/04/13 08:05:51;;;;;;;3.28;2.25;;;3.80;99.90;;;;;;4980549;28;20035;-84
2021/04/13 08:08:32;;;;;;;40.03;24.85;;;3.70;99.90;;;;;;4959157;28;20058;-84
2021/04/13 08:11:12;;;;;;;5.95;4.15;;;3.70;99.90;;;;;;4955393;28;20035;-85
2021/04/13 08:13:39;;;;;;;2.75;1.90;;;4.20;99.90;;;;;;4952203;28;20133;-84
2021/04/13 08:16:06;;;;;;;2.78;1.80;;;4.10;99.90;;;;;;4949119;29;20027;-84
2021/04/13 08:18:44;;;;;;;1.80;1.42;;;4.00;99.90;;;;;;4944545;29;20479;-86
2021/04/13 08:21:16;;;;;;;2.45;2.05;;;3.90;99.90;;;;;;4941892;29;20038;-85
2021/04/13 08:23:42;;;;;;;2.38;1.90;;;3.90;99.90;;;;;;4942574;29;20039;-84
2021/04/13 08:26:26;;;;;;;5.78;3.17;;;4.10;99.90;;;;;;4944753;28;20063;-83
2021/04/13 08:29:34;;;;;;;3.38;1.88;;;4.00;99.90;;;;;;4960760;28;20027;-85
2021/04/13 08:35:13;;;;;;;2.65;1.77;;;4.20;99.90;;;;;;4986782;28;20066;-85
2021/04/13 08:38:33;;;;;;;2.13;1.88;;;4.20;99.90;;;;;;4964138;28;20035;-84
2021/04/13 08:41:11;;;;;;;4.00;2.58;;;4.20;99.90;;;;;;4875107;29;20600;-83
2021/04/13 08:43:48;;;;;;;4.32;1.60;;;4.30;99.90;;;;;;4938769;28;20066;-80
2021/04/13 08:46:21;;;;;;;2.47;2.28;;;4.40;99.90;;;;;;4988805;28;20038;-76
2021/04/13 08:49:08;;;;;;;2.55;1.88;;;4.40;99.90;;;;;;4976986;28;20019;-80
2021/04/13 08:51:45;;;;;;;3.28;2.63;;;4.20;99.90;;;;;;4980543;28;20034;-79
2021/04/13 08:54:25;;;;;;;2.90;1.40;;;4.40;99.90;;;;;;4993520;28;20049;-79
2021/04/13 08:56:57;;;;;;;1.92;1.40;;;4.10;99.90;;;;;;4976120;28;20018;-81
2021/04/13 08:59:55;;;;;;;5.43;1.90;;;4.00;99.90;;;;;;4974860;28;20026;-80
2021/04/13 09:02:35;;;;;;;3.25;2.45;;;5.30;99.90;;;;;;4961564;28;20070;-79
2021/04/13 09:05:20;;;;;;;2.25;1.77;;;4.90;99.90;;;;;;4970649;28;20022;-79
2021/04/13 09:07:46;;;;;;;2.28;1.17;;;4.60;99.90;;;;;;4975670;28;20406;-78
2021/04/13 09:10:27;;;;;;;3.28;2.92;;;4.40;99.90;;;;;;4990866;28;20117;-78
2021/04/13 09:13:06;;;;;;;2.75;2.00;;;4.40;99.90;;;;;;4979854;28;20014;-80
2021/04/13 09:15:33;;;;;;;3.65;2.05;;;4.40;99.90;;;;;;4993150;28;20136;-79
2021/04/13 09:18:14;;;;;;;3.25;2.60;;;4.50;99.90;;;;;;4987356;28;20121;-79
2021/04/13 09:20:46;;;;;;;2.60;1.90;;;4.40;99.90;;;;;;4977471;28;20037;-81
2021/04/13 09:23:35;;;;;;;2.28;1.45;;;4.60;99.90;;;;;;4977384;28;20034;-80
2021/04/13 09:26:22;;;;;;;2.30;1.80;;;4.50;99.90;;;;;;4977188;28;20041;-80
2021/04/13 09:29:01;;;;;;;1.90;1.63;;;4.40;99.90;;;;;;4976133;28;20117;-79
2021/04/13 09:31:43;;;;;;;3.10;1.70;;;4.40;99.90;;;;;;4976746;28;20026;-79
2021/04/13 09:34:13;;;;;;;2.38;1.67;;;4.50;99.90;;;;;;4976376;28;20057;-79
2021/04/13 09:37:05;;;;;;;1.98;1.77;;;4.60;99.90;;;;;;4977147;28;20109;-78
2021/04/13 09:39:49;;;;;;;3.88;2.85;;;4.80;99.90;;;;;;4991347;28;20104;-78
2021/04/13 09:42:52;;;;;;;2.80;1.65;;;4.90;99.90;;;;;;4992609;28;20078;-79
2021/04/13 09:45:18;;;;;;;2.35;2.15;;;5.10;99.90;;;;;;4978841;28;20046;-79
2021/04/13 09:48:05;;;;;;;3.55;1.52;;;5.20;99.90;;;;;;4993487;28;20497;-77
2021/04/13 09:50:58;;;;;;;1.52;1.20;;;5.20;99.90;;;;;;5008723;28;20030;-78
2021/04/13 09:53:30;;;;;;;2.00;1.30;;;5.20;99.90;;;;;;4992396;28;20054;-80
2021/04/13 09:56:25;;;;;;;2.35;1.40;;;5.20;99.90;;;;;;4984535;28;20100;-80
2021/04/13 09:59:22;;;;;;;4.57;2.65;;;5.30;99.90;;;;;;4991733;28;20039;-80
2021/04/13 10:01:57;;;;;;;;;;;5.30;99.90;;;;;;4992426;28;20378;-80
2021/04/13 10:04:54;;;;;;;4.47;2.10;;;5.30;99.90;;;;;;4992229;28;20269;-81
2021/04/13 10:07:25;;;;;;;;;;;5.20;99.90;;;;;;4992822;28;20030;-79
2021/04/13 10:09:53;;;;;;;2.63;2.22;;;5.10;99.90;;;;;;4992437;28;19913;-82
2021/04/13 10:12:56;;;;;;;3.05;1.70;;;5.20;99.90;;;;;;4992803;28;20085;-80
2021/04/13 10:15:58;;;;;;;1.67;1.40;;;5.30;99.90;;;;;;4936378;29;20114;-80
2021/04/13 10:18:24;;;;;;;3.08;2.63;;;5.30;99.90;;;;;;4991207;28;20445;-80
2021/04/13 10:21:03;;;;;;;3.20;2.55;;;5.30;99.50;;;;;;4991591;28;20026;-79
2021/04/13 10:24:03;;;;;;;1.83;1.38;;;5.40;99.80;;;;;;4986259;28;20132;-80
2021/04/13 10:26:34;;;;;;;24.00;13.18;;;5.60;98.40;;;;;;4984671;28;20124;-80
2021/04/13 10:29:34;;;;;;;9.57;5.30;;;5.60;97.30;;;;;;4990505;28;20419;-79
2021/04/13 10:32:15;;;;;;;60.63;27.08;;;5.80;96.60;;;;;;4988617;28;20022;-79
2021/04/13 10:34:40;;;;;;;9.63;5.18;;;6.00;98.20;;;;;;4986711;28;20031;-80
2021/04/13 10:37:52;;;;;;;13.73;6.18;;;6.10;96.00;;;;;;4989196;28;20037;-79
2021/04/13 10:40:55;;;;;;;16.73;8.13;;;6.00;95.80;;;;;;4950121;28;20600;-79
2021/04/13 10:43:47;;;;;;;48.08;25.23;;;6.10;92.20;;;;;;4975734;28;20041;-80
2021/04/13 10:46:32;;;;;;;62.33;41.55;;;5.90;94.30;;;;;;4976987;28;20162;-79
2021/04/13 10:49:36;;;;;;;7.45;5.72;;;5.80;94.60;;;;;;4990160;28;20046;-80
2021/04/13 10:52:27;;;;;;;17.13;12.60;;;5.80;93.30;;;;;;4960904;28;20033;-80
2021/04/13 10:55:22;;;;;;;10.25;6.93;;;5.80;94.10;;;;;;4982477;28;20018;-78
2021/04/13 10:58:11;;;;;;;2.60;1.50;;;5.90;94.20;;;;;;4971286;28;20037;-80
2021/04/13 11:00:40;;;;;;;9.40;4.50;;;6.10;94.90;;;;;;4960142;28;20454;-78
2021/04/13 11:03:45;;;;;;;6.90;4.97;;;6.30;96.40;;;;;;4976793;28;20027;-78
2021/04/13 11:06:48;;;;;;;9.68;8.80;;;6.40;95.20;;;;;;4982256;28;20109;-78
2021/04/13 11:09:41;;;;;;;4.15;2.67;;;6.60;92.50;;;;;;4990990;28;20022;-79
2021/04/13 11:12:27;;;;;;;2.33;0.80;;;6.60;93.90;;;;;;4980960;28;20497;-79
2021/04/13 11:14:53;;;;;;;;;;;6.70;92.30;;;;;;4986526;28;20096;-80
2021/04/13 11:17:37;;;;;;;2.15;0.88;;;6.90;95.20;;;;;;4974474;28;19945;-79
2021/04/13 11:20:26;;;;;;;1.48;1.10;;;7.10;93.90;;;;;;4969298;28;20143;-80
2021/04/13 11:23:13;;;;;;;3.33;3.03;;;7.10;93.30;;;;;;4984769;28;20386;-79
2021/04/13 11:25:58;;;;;;;0.73;0.50;;;7.20;93.90;;;;;;4988629;28;20039;-75
2021/04/13 11:28:55;;;;;;;1.45;0.68;;;7.30;93.40;;;;;;4985663;28;20082;-80
2021/04/13 11:31:54;;;;;;;1.40;0.55;;;7.30;93.40;;;;;;4987550;28;20500;-78
2021/04/13 11:34:38;;;;;;;2.53;0.50;;;7.30;93.20;;;;;;4971694;28;20034;-78
2021/04/13 11:37:22;;;;;;;2.35;0.50;;;7.30;95.20;;;;;;4968623;28;20097;-79
2021/04/13 11:40:21;;;;;;;0.60;0.35;;;7.20;97.70;;;;;;4986507;28;20030;-80
2021/04/13 11:42:50;;;;;;;2.05;0.50;;;7.00;95.80;;;;;;4989123;28;20505;-79
2021/04/13 11:45:38;;;;;;;1.63;0.38;;;7.10;96.50;;;;;;4973788;28;20105;-80
2021/04/13 11:48:32;;;;;;;1.15;0.80;;;7.20;95.70;;;;;;4986673;28;20096;-81
2021/04/13 11:51:00;;;;;;;1.98;1.75;;;7.20;93.00;;;;;;4981620;28;20038;-79
2021/04/13 11:53:26;;;;;;;13.70;4.15;;;7.10;93.30;;;;;;4989655;28;20038;-77
2021/04/13 11:55:52;;;;;;;6.45;4.07;;;7.80;99.90;;;;;;4991649;28;20102;-77
2021/04/13 11:58:23;;;;;;;7.38;5.35;;;8.10;94.20;;;;;;4990442;28;20038;-80
2021/04/13 12:00:54;;;;;;;3.38;0.80;;;8.00;91.20;;;;;;4992141;28;20110;-78
2021/04/13 12:03:22;;;;;;;1.05;0.52;;;7.90;91.30;;;;;;4992471;28;20576;-80
2021/04/13 12:05:59;;;;;;;3.40;2.42;;;7.60;90.90;;;;;;4995441;28;20026;-79
2021/04/13 12:08:31;;;;;;;0.85;0.40;;;7.50;95.10;;;;;;4994597;28;20076;-78
2021/04/13 12:11:00;;;;;;;18.55;11.18;;;7.40;93.10;;;;;;4995576;28;20398;-79
2021/04/13 12:13:40;;;;;;;3.13;1.75;;;7.20;90.40;;;;;;4995605;28;20018;-73
2021/04/13 12:16:09;;;;;;;5.75;3.60;;;6.80;79.10;;;;;;4990781;28;20018;-73
2021/04/13 12:18:38;;;;;;;2.53;1.20;;;6.60;83.40;;;;;;4994364;28;20097;-74
2021/04/13 12:21:22;;;;;;;2.88;0.93;;;6.40;85.30;;;;;;4995416;28;20033;-79
2021/04/13 12:23:54;;;;;;;5.85;1.40;;;6.30;77.40;;;;;;4995192;28;20042;-78
2021/04/13 12:26:40;;;;;;;1.67;0.80;;;6.20;82.60;;;;;;4994104;28;20038;-76
2021/04/13 12:29:30;;;;;;;3.30;0.95;;;6.10;80.50;;;;;;4991801;28;20026;-77
2021/04/13 12:32:11;;;;;;;9.68;3.17;;;6.10;79.20;;;;;;4984892;28;20034;-75
2021/04/13 12:35:01;;;;;;;16.52;8.68;;;6.30;97.60;;;;;;4994807;28;20093;-80
2021/04/13 12:37:45;;;;;;;4.53;2.72;;;6.80;85.00;;;;;;4989348;28;20117;-76
2021/04/13 12:40:20;;;;;;;2.05;0.57;;;6.50;82.80;;;;;;4992442;28;20030;-75
2021/04/13 12:42:47;;;;;;;5.10;3.67;;;6.20;80.30;;;;;;4986974;28;20393;-79
2021/04/13 12:45:21;;;;;;;6.13;3.70;;;6.20;83.10;;;;;;4990450;28;20073;-77
2021/04/13 12:47:52;;;;;;;7.10;4.80;;;6.10;80.00;;;;;;4992687;28;20081;-79
2021/04/13 12:50:32;;;;;;;6.13;2.80;;;6.00;79.90;;;;;;4987496;28;20432;-78
2021/04/13 12:53:00;;;;;;;15.77;12.63;;;6.00;83.60;;;;;;4994694;28;20054;-77
2021/04/13 12:55:27;;;;;;;44.20;27.67;;;6.00;81.60;;;;;;4993344;28;20542;-75
2021/04/13 12:58:02;;;;;;;13.30;8.13;;;6.00;82.30;;;;;;4992855;28;20496;-78
2021/04/13 13:00:33;;;;;;;3.42;2.20;;;6.10;85.20;;;;;;4988361;28;20030;-79
2021/04/13 13:03:23;;;;;;;36.88;22.42;;;6.10;85.10;;;;;;4992848;28;20148;-79
2021/04/13 13:05:51;;;;;;;47.42;21.50;;;6.20;82.10;;;;;;5002408;28;20069;-80
2021/04/13 13:08:25;;;;;;;68.75;28.85;;;6.10;77.20;;;;;;4988714;28;20437;-78
2021/04/13 13:10:55;;;;;;;51.58;24.40;;;6.20;79.60;;;;;;4994025;28;22008;-79
2021/04/13 13:13:30;;;;;;;34.83;14.18;;;6.20;79.20;;;;;;4991000;28;20077;-79
2021/04/13 13:15:57;;;;;;;5.53;1.30;;;6.30;82.50;;;;;;4993422;28;20117;-80
2021/04/13 13:18:32;;;;;;;15.73;6.82;;;6.30;75.00;;;;;;4995265;28;20026;-81
2021/04/13 13:21:00;;;;;;;31.55;14.77;;;6.30;75.10;;;;;;4993702;28;20037;-81
2021/04/13 13:23:35;;;;;;;3.20;1.33;;;6.30;82.00;;;;;;4994951;28;20034;-82
2021/04/13 13:26:26;;;;;;;1.57;0.60;;;6.30;75.70;;;;;;4996033;28;20030;-83
2021/04/13 13:28:51;;;;;;;2.58;1.20;;;6.30;76.10;;;;;;4989675;28;20026;-84
2021/04/13 13:31:29;;;;;;;1.83;0.70;;;6.30;75.00;;;;;;4995172;28;20026;-83
2021/04/13 13:34:04;;;;;;;5.75;2.30;;;6.20;72.90;;;;;;4994924;28;20022;-86
2021/04/13 13:36:32;;;;;;;5.80;3.80;;;6.10;74.10;;;;;;4994939;28;20026;-78
2021/04/13 13:39:00;;;;;;;1.58;0.90;;;6.10;74.10;;;;;;4990664;28;20034;-80
2021/04/13 13:41:28;;;;;;;5.70;4.28;;;6.00;75.10;;;;;;4986680;28;20022;-81
2021/04/13 13:43:54;;;;;;;3.45;1.70;;;6.00;74.20;;;;;;4992833;28;20514;-78
2021/04/13 13:46:27;;;;;;;3.30;2.22;;;6.10;75.10;;;;;;4992908;28;20053;-79
2021/04/13 13:48:56;;;;;;;3.42;1.90;;;6.10;76.40;;;;;;4990696;28;20425;-79